sensor_id;sensor_type;location;lat;lon;timestamp;P1;durP1;ratioP1;P2;durP2;ratioP2
13461;SDS011;6803;45.264;5.468;2023-04-25T00:00:08;4.93;;;1.80;;
13461;SDS011;6803;45.264;5.468;2023-04-25T00:02:41;5.37;;;1.93;;
13461;SDS011;6803;45.264;5.468;2023-04-25T00:05:12;5.80;;;2.33;;
13461;SDS011;6803;45.264;5.468;2023-04-25T00:07:44;5.73;;;2.17;;
13461;SDS011;6803;45.264;5.468;2023-04-25T00:10:15;4.30;;;1.50;;
13461;SDS011;6803;45.264;5.468;2023-04-25T00:12:46;4.53;;;2.37;;
13461;SDS011;6803;45.264;5.468;2023-04-25T00:15:17;7.27;;;2.57;;
13461;SDS011;6803;45.264;5.468;2023-04-25T00:17:48;4.30;;;1.93;;
13461;SDS011;6803;45.264;5.468;2023-04-25T00:20:20;2.97;;;1.70;;
13461;SDS011;6803;45.264;5.468;2023-04-25T00:22:53;6.73;;;2.10;;
13461;SDS011;6803;45.264;5.468;2023-04-25T00:25:24;2.77;;;1.83;;
13461;SDS011;6803;45.264;5.468;2023-04-25T00:27:59;4.17;;;1.90;;
13461;SDS011;6803;45.264;5.468;2023-04-25T00:30:30;4.33;;;1.70;;
13461;SDS011;6803;45.264;5.468;2023-04-25T00:33:01;5.23;;;2.10;;
13461;SDS011;6803;45.264;5.468;2023-04-25T00:35:33;4.43;;;2.00;;
13461;SDS011;6803;45.264;5.468;2023-04-25T00:38:04;5.17;;;1.97;;
13461;SDS011;6803;45.264;5.468;2023-04-25T00:40:35;5.13;;;2.00;;
13461;SDS011;6803;45.264;5.468;2023-04-25T00:43:06;4.47;;;2.00;;
13461;SDS011;6803;45.264;5.468;2023-04-25T00:45:38;4.20;;;2.07;;
13461;SDS011;6803;45.264;5.468;2023-04-25T00:48:09;3.50;;;2.00;;
13461;SDS011;6803;45.264;5.468;2023-04-25T00:50:41;4.50;;;2.10;;
13461;SDS011;6803;45.264;5.468;2023-04-25T00:53:13;3.17;;;1.87;;
13461;SDS011;6803;45.264;5.468;2023-04-25T00:55:44;3.60;;;1.73;;
13461;SDS011;6803;45.264;5.468;2023-04-25T00:58:16;4.37;;;2.03;;
13461;SDS011;6803;45.264;5.468;2023-04-25T01:00:49;6.43;;;2.03;;
13461;SDS011;6803;45.264;5.468;2023-04-25T01:03:21;7.67;;;2.00;;
13461;SDS011;6803;45.264;5.468;2023-04-25T01:05:55;5.77;;;1.73;;
13461;SDS011;6803;45.264;5.468;2023-04-25T01:08:26;2.33;;;1.70;;
13461;SDS011;6803;45.264;5.468;2023-04-25T01:10:58;3.20;;;1.83;;
13461;SDS011;6803;45.264;5.468;2023-04-25T01:13:29;4.23;;;1.87;;
13461;SDS011;6803;45.264;5.468;2023-04-25T01:16:01;5.47;;;2.17;;
13461;SDS011;6803;45.264;5.468;2023-04-25T01:18:32;5.27;;;2.20;;
13461;SDS011;6803;45.264;5.468;2023-04-25T01:21:07;3.30;;;2.10;;
13461;SDS011;6803;45.264;5.468;2023-04-25T01:23:39;4.67;;;2.00;;
13461;SDS011;6803;45.264;5.468;2023-04-25T01:26:11;4.20;;;1.87;;
13461;SDS011;6803;45.264;5.468;2023-04-25T01:28:43;4.03;;;2.37;;
13461;SDS011;6803;45.264;5.468;2023-04-25T01:31:14;4.80;;;1.90;;
13461;SDS011;6803;45.264;5.468;2023-04-25T01:33:47;2.50;;;1.87;;
13461;SDS011;6803;45.264;5.468;2023-04-25T01:36:18;2.43;;;1.80;;
13461;SDS011;6803;45.264;5.468;2023-04-25T01:38:50;3.80;;;2.10;;
13461;SDS011;6803;45.264;5.468;2023-04-25T01:41:22;6.97;;;1.93;;
13461;SDS011;6803;45.264;5.468;2023-04-25T01:43:54;1.73;;;1.63;;
13461;SDS011;6803;45.264;5.468;2023-04-25T01:46:25;2.77;;;2.03;;
13461;SDS011;6803;45.264;5.468;2023-04-25T01:48:56;5.33;;;1.90;;
13461;SDS011;6803;45.264;5.468;2023-04-25T01:51:27;6.27;;;2.17;;
13461;SDS011;6803;45.264;5.468;2023-04-25T01:53:59;4.27;;;2.07;;
13461;SDS011;6803;45.264;5.468;2023-04-25T01:56:31;3.37;;;2.20;;
13461;SDS011;6803;45.264;5.468;2023-04-25T01:59:04;5.60;;;2.17;;
13461;SDS011;6803;45.264;5.468;2023-04-25T02:01:35;4.13;;;2.00;;
13461;SDS011;6803;45.264;5.468;2023-04-25T02:04:06;4.53;;;2.80;;
13461;SDS011;6803;45.264;5.468;2023-04-25T02:06:38;2.93;;;1.97;;
13461;SDS011;6803;45.264;5.468;2023-04-25T02:09:09;5.90;;;2.00;;
13461;SDS011;6803;45.264;5.468;2023-04-25T02:11:40;5.90;;;2.00;;
13461;SDS011;6803;45.264;5.468;2023-04-25T02:14:11;4.77;;;2.03;;
13461;SDS011;6803;45.264;5.468;2023-04-25T02:16:42;3.03;;;1.73;;
13461;SDS011;6803;45.264;5.468;2023-04-25T02:19:14;4.70;;;1.93;;
13461;SDS011;6803;45.264;5.468;2023-04-25T02:21:45;4.47;;;2.20;;
13461;SDS011;6803;45.264;5.468;2023-04-25T02:24:16;3.97;;;1.83;;
13461;SDS011;6803;45.264;5.468;2023-04-25T02:26:47;5.37;;;2.70;;
13461;SDS011;6803;45.264;5.468;2023-04-25T02:29:18;3.80;;;2.03;;
13461;SDS011;6803;45.264;5.468;2023-04-25T02:31:49;2.17;;;1.80;;
13461;SDS011;6803;45.264;5.468;2023-04-25T02:37:10;4.90;;;1.90;;
13461;SDS011;6803;45.264;5.468;2023-04-25T02:39:41;3.00;;;1.90;;
13461;SDS011;6803;45.264;5.468;2023-04-25T02:42:12;3.20;;;1.93;;
13461;SDS011;6803;45.264;5.468;2023-04-25T02:44:43;4.60;;;2.20;;
13461;SDS011;6803;45.264;5.468;2023-04-25T02:47:15;3.30;;;2.47;;
13461;SDS011;6803;45.264;5.468;2023-04-25T02:49:46;4.03;;;2.17;;
13461;SDS011;6803;45.264;5.468;2023-04-25T02:52:17;8.23;;;2.37;;
13461;SDS011;6803;45.264;5.468;2023-04-25T02:54:49;3.03;;;2.10;;
13461;SDS011;6803;45.264;5.468;2023-04-25T02:57:20;4.40;;;2.20;;
13461;SDS011;6803;45.264;5.468;2023-04-25T02:59:51;5.07;;;2.40;;
13461;SDS011;6803;45.264;5.468;2023-04-25T03:02:22;4.40;;;2.07;;
13461;SDS011;6803;45.264;5.468;2023-04-25T03:04:53;3.63;;;1.90;;
13461;SDS011;6803;45.264;5.468;2023-04-25T03:07:24;5.60;;;1.80;;
13461;SDS011;6803;45.264;5.468;2023-04-25T03:09:55;4.03;;;2.00;;
13461;SDS011;6803;45.264;5.468;2023-04-25T03:12:26;4.87;;;2.17;;
13461;SDS011;6803;45.264;5.468;2023-04-25T03:14:57;2.73;;;1.93;;
13461;SDS011;6803;45.264;5.468;2023-04-25T03:17:28;2.20;;;2.00;;
13461;SDS011;6803;45.264;5.468;2023-04-25T03:19:59;2.10;;;1.90;;
13461;SDS011;6803;45.264;5.468;2023-04-25T03:22:32;3.20;;;2.30;;
13461;SDS011;6803;45.264;5.468;2023-04-25T03:25:04;2.90;;;2.23;;
13461;SDS011;6803;45.264;5.468;2023-04-25T03:27:36;3.80;;;1.93;;
13461;SDS011;6803;45.264;5.468;2023-04-25T03:30:08;4.23;;;2.57;;
13461;SDS011;6803;45.264;5.468;2023-04-25T03:32:40;3.57;;;2.43;;
13461;SDS011;6803;45.264;5.468;2023-04-25T03:35:11;5.17;;;2.53;;
13461;SDS011;6803;45.264;5.468;2023-04-25T03:37:42;5.77;;;2.37;;
13461;SDS011;6803;45.264;5.468;2023-04-25T03:40:13;4.77;;;2.60;;
13461;SDS011;6803;45.264;5.468;2023-04-25T03:42:44;6.20;;;2.90;;
13461;SDS011;6803;45.264;5.468;2023-04-25T03:45:15;5.30;;;2.60;;
13461;SDS011;6803;45.264;5.468;2023-04-25T03:47:47;5.50;;;2.93;;
13461;SDS011;6803;45.264;5.468;2023-04-25T03:50:18;5.80;;;2.83;;
13461;SDS011;6803;45.264;5.468;2023-04-25T03:52:49;6.50;;;2.80;;
13461;SDS011;6803;45.264;5.468;2023-04-25T03:55:20;3.97;;;2.70;;
13461;SDS011;6803;45.264;5.468;2023-04-25T03:57:51;5.10;;;2.93;;
13461;SDS011;6803;45.264;5.468;2023-04-25T04:00:22;5.63;;;2.47;;
13461;SDS011;6803;45.264;5.468;2023-04-25T04:02:53;10.50;;;3.20;;
13461;SDS011;6803;45.264;5.468;2023-04-25T04:05:24;6.03;;;3.30;;
13461;SDS011;6803;45.264;5.468;2023-04-25T04:07:55;4.63;;;3.00;;
13461;SDS011;6803;45.264;5.468;2023-04-25T04:10:25;5.77;;;2.63;;
13461;SDS011;6803;45.264;5.468;2023-04-25T04:12:56;6.70;;;2.90;;
13461;SDS011;6803;45.264;5.468;2023-04-25T04:15:27;4.20;;;2.73;;
13461;SDS011;6803;45.264;5.468;2023-04-25T04:18:00;6.90;;;2.77;;
13461;SDS011;6803;45.264;5.468;2023-04-25T04:20:31;5.63;;;3.23;;
13461;SDS011;6803;45.264;5.468;2023-04-25T04:23:03;4.57;;;2.67;;
13461;SDS011;6803;45.264;5.468;2023-04-25T04:25:34;3.27;;;2.50;;
13461;SDS011;6803;45.264;5.468;2023-04-25T04:28:05;3.37;;;2.70;;
13461;SDS011;6803;45.264;5.468;2023-04-25T04:30:36;4.00;;;3.00;;
13461;SDS011;6803;45.264;5.468;2023-04-25T04:33:07;4.17;;;3.03;;
13461;SDS011;6803;45.264;5.468;2023-04-25T04:35:38;7.10;;;2.80;;
13461;SDS011;6803;45.264;5.468;2023-04-25T04:38:09;7.13;;;2.50;;
13461;SDS011;6803;45.264;5.468;2023-04-25T04:40:40;4.60;;;2.40;;
13461;SDS011;6803;45.264;5.468;2023-04-25T04:43:11;3.37;;;2.30;;
13461;SDS011;6803;45.264;5.468;2023-04-25T04:45:44;5.57;;;2.90;;
13461;SDS011;6803;45.264;5.468;2023-04-25T04:48:15;4.97;;;2.80;;
13461;SDS011;6803;45.264;5.468;2023-04-25T04:50:47;5.27;;;2.57;;
13461;SDS011;6803;45.264;5.468;2023-04-25T04:53:18;4.23;;;3.27;;
13461;SDS011;6803;45.264;5.468;2023-04-25T04:55:49;6.33;;;2.80;;
13461;SDS011;6803;45.264;5.468;2023-04-25T04:58:20;4.17;;;3.10;;
13461;SDS011;6803;45.264;5.468;2023-04-25T05:00:51;10.00;;;3.07;;
13461;SDS011;6803;45.264;5.468;2023-04-25T05:03:23;6.60;;;2.50;;
13461;SDS011;6803;45.264;5.468;2023-04-25T05:08:45;6.23;;;2.60;;
13461;SDS011;6803;45.264;5.468;2023-04-25T05:11:17;4.30;;;3.00;;
13461;SDS011;6803;45.264;5.468;2023-04-25T05:13:49;5.30;;;2.73;;
13461;SDS011;6803;45.264;5.468;2023-04-25T05:16:21;9.03;;;2.43;;
13461;SDS011;6803;45.264;5.468;2023-04-25T05:18:53;6.30;;;2.80;;
13461;SDS011;6803;45.264;5.468;2023-04-25T05:21:25;4.83;;;2.70;;
13461;SDS011;6803;45.264;5.468;2023-04-25T05:23:56;7.90;;;2.93;;
13461;SDS011;6803;45.264;5.468;2023-04-25T05:26:27;3.33;;;2.37;;
13461;SDS011;6803;45.264;5.468;2023-04-25T05:28:59;7.60;;;2.97;;
13461;SDS011;6803;45.264;5.468;2023-04-25T05:31:30;5.47;;;3.20;;
13461;SDS011;6803;45.264;5.468;2023-04-25T05:34:01;5.87;;;2.93;;
13461;SDS011;6803;45.264;5.468;2023-04-25T05:36:32;5.83;;;2.80;;
13461;SDS011;6803;45.264;5.468;2023-04-25T05:39:03;5.40;;;4.00;;
13461;SDS011;6803;45.264;5.468;2023-04-25T05:41:36;5.73;;;2.80;;
13461;SDS011;6803;45.264;5.468;2023-04-25T05:44:07;4.77;;;3.00;;
13461;SDS011;6803;45.264;5.468;2023-04-25T05:46:39;6.67;;;2.83;;
13461;SDS011;6803;45.264;5.468;2023-04-25T05:49:09;7.20;;;2.73;;
13461;SDS011;6803;45.264;5.468;2023-04-25T05:51:41;3.87;;;2.33;;
13461;SDS011;6803;45.264;5.468;2023-04-25T05:54:12;6.17;;;2.87;;
13461;SDS011;6803;45.264;5.468;2023-04-25T05:56:43;3.30;;;2.60;;
13461;SDS011;6803;45.264;5.468;2023-04-25T05:59:14;6.37;;;3.00;;
13461;SDS011;6803;45.264;5.468;2023-04-25T06:01:45;4.10;;;2.57;;
13461;SDS011;6803;45.264;5.468;2023-04-25T06:04:16;4.23;;;2.87;;
13461;SDS011;6803;45.264;5.468;2023-04-25T06:06:47;5.40;;;3.20;;
13461;SDS011;6803;45.264;5.468;2023-04-25T06:09:18;10.47;;;3.33;;
13461;SDS011;6803;45.264;5.468;2023-04-25T06:11:50;6.47;;;2.70;;
13461;SDS011;6803;45.264;5.468;2023-04-25T06:14:20;6.05;;;2.90;;
13461;SDS011;6803;45.264;5.468;2023-04-25T06:16:53;5.80;;;2.97;;
13461;SDS011;6803;45.264;5.468;2023-04-25T06:19:24;7.20;;;3.03;;
13461;SDS011;6803;45.264;5.468;2023-04-25T06:21:54;8.30;;;3.47;;
13461;SDS011;6803;45.264;5.468;2023-04-25T06:24:25;7.30;;;3.20;;
13461;SDS011;6803;45.264;5.468;2023-04-25T06:26:56;5.10;;;3.00;;
13461;SDS011;6803;45.264;5.468;2023-04-25T06:29:27;7.90;;;2.93;;
13461;SDS011;6803;45.264;5.468;2023-04-25T06:32:05;4.83;;;2.92;;
13461;SDS011;6803;45.264;5.468;2023-04-25T06:34:36;10.47;;;3.10;;
13461;SDS011;6803;45.264;5.468;2023-04-25T06:37:07;5.80;;;3.07;;
13461;SDS011;6803;45.264;5.468;2023-04-25T06:39:38;13.30;;;3.83;;
13461;SDS011;6803;45.264;5.468;2023-04-25T06:42:09;7.20;;;3.27;;
13461;SDS011;6803;45.264;5.468;2023-04-25T06:44:40;7.73;;;3.30;;
13461;SDS011;6803;45.264;5.468;2023-04-25T06:47:11;9.47;;;3.43;;
13461;SDS011;6803;45.264;5.468;2023-04-25T06:49:41;5.53;;;3.20;;
13461;SDS011;6803;45.264;5.468;2023-04-25T06:52:12;8.57;;;3.97;;
13461;SDS011;6803;45.264;5.468;2023-04-25T06:54:45;6.93;;;2.93;;
13461;SDS011;6803;45.264;5.468;2023-04-25T06:57:15;7.83;;;3.03;;
13461;SDS011;6803;45.264;5.468;2023-04-25T06:59:46;6.43;;;3.33;;
13461;SDS011;6803;45.264;5.468;2023-04-25T07:02:17;9.67;;;3.87;;
13461;SDS011;6803;45.264;5.468;2023-04-25T07:04:49;10.20;;;3.30;;
13461;SDS011;6803;45.264;5.468;2023-04-25T07:07:20;5.27;;;3.17;;
13461;SDS011;6803;45.264;5.468;2023-04-25T07:09:51;10.20;;;3.47;;
13461;SDS011;6803;45.264;5.468;2023-04-25T07:12:22;9.47;;;3.33;;
13461;SDS011;6803;45.264;5.468;2023-04-25T07:14:53;8.90;;;2.90;;
13461;SDS011;6803;45.264;5.468;2023-04-25T07:17:24;5.57;;;3.43;;
13461;SDS011;6803;45.264;5.468;2023-04-25T07:19:55;6.27;;;3.23;;
13461;SDS011;6803;45.264;5.468;2023-04-25T07:22:26;10.93;;;3.47;;
13461;SDS011;6803;45.264;5.468;2023-04-25T07:24:56;7.77;;;3.20;;
13461;SDS011;6803;45.264;5.468;2023-04-25T07:27:27;6.67;;;3.37;;
13461;SDS011;6803;45.264;5.468;2023-04-25T07:29:58;6.50;;;2.90;;
13461;SDS011;6803;45.264;5.468;2023-04-25T07:32:29;5.63;;;3.53;;
13461;SDS011;6803;45.264;5.468;2023-04-25T07:35:00;9.07;;;3.20;;
13461;SDS011;6803;45.264;5.468;2023-04-25T07:37:31;8.27;;;3.40;;
13461;SDS011;6803;45.264;5.468;2023-04-25T07:40:02;4.17;;;3.00;;
13461;SDS011;6803;45.264;5.468;2023-04-25T07:42:36;10.13;;;3.27;;
13461;SDS011;6803;45.264;5.468;2023-04-25T07:45:08;5.87;;;2.87;;
13461;SDS011;6803;45.264;5.468;2023-04-25T07:47:40;6.00;;;3.10;;
13461;SDS011;6803;45.264;5.468;2023-04-25T07:50:11;5.33;;;3.20;;
13461;SDS011;6803;45.264;5.468;2023-04-25T07:52:42;5.10;;;2.77;;
13461;SDS011;6803;45.264;5.468;2023-04-25T07:55:13;9.43;;;3.10;;
13461;SDS011;6803;45.264;5.468;2023-04-25T07:57:44;6.50;;;3.43;;
13461;SDS011;6803;45.264;5.468;2023-04-25T08:00:15;8.00;;;3.03;;
13461;SDS011;6803;45.264;5.468;2023-04-25T08:02:47;7.07;;;3.13;;
13461;SDS011;6803;45.264;5.468;2023-04-25T08:05:19;7.13;;;3.27;;
13461;SDS011;6803;45.264;5.468;2023-04-25T08:07:50;5.70;;;3.10;;
13461;SDS011;6803;45.264;5.468;2023-04-25T08:10:21;5.30;;;3.00;;
13461;SDS011;6803;45.264;5.468;2023-04-25T08:12:52;7.07;;;2.97;;
13461;SDS011;6803;45.264;5.468;2023-04-25T08:15:23;6.00;;;2.87;;
13461;SDS011;6803;45.264;5.468;2023-04-25T08:17:54;5.80;;;2.87;;
13461;SDS011;6803;45.264;5.468;2023-04-25T08:20:24;5.57;;;2.80;;
13461;SDS011;6803;45.264;5.468;2023-04-25T08:22:55;7.17;;;3.10;;
13461;SDS011;6803;45.264;5.468;2023-04-25T08:25:26;4.67;;;2.80;;
13461;SDS011;6803;45.264;5.468;2023-04-25T08:27:57;6.53;;;3.33;;
13461;SDS011;6803;45.264;5.468;2023-04-25T08:30:29;6.30;;;2.67;;
13461;SDS011;6803;45.264;5.468;2023-04-25T08:33:00;8.43;;;2.80;;
13461;SDS011;6803;45.264;5.468;2023-04-25T08:35:31;9.50;;;3.60;;
13461;SDS011;6803;45.264;5.468;2023-04-25T08:38:03;5.80;;;2.60;;
13461;SDS011;6803;45.264;5.468;2023-04-25T08:40:36;6.73;;;3.00;;
13461;SDS011;6803;45.264;5.468;2023-04-25T08:43:08;5.47;;;3.03;;
13461;SDS011;6803;45.264;5.468;2023-04-25T08:45:41;5.23;;;2.77;;
13461;SDS011;6803;45.264;5.468;2023-04-25T08:48:13;5.03;;;2.57;;
13461;SDS011;6803;45.264;5.468;2023-04-25T08:50:48;4.00;;;2.30;;
13461;SDS011;6803;45.264;5.468;2023-04-25T08:53:22;5.60;;;3.10;;
13461;SDS011;6803;45.264;5.468;2023-04-25T08:55:59;6.60;;;2.67;;
13461;SDS011;6803;45.264;5.468;2023-04-25T08:58:31;6.12;;;3.00;;
13461;SDS011;6803;45.264;5.468;2023-04-25T09:01:03;4.63;;;2.60;;
13461;SDS011;6803;45.264;5.468;2023-04-25T09:03:35;6.60;;;2.47;;
13461;SDS011;6803;45.264;5.468;2023-04-25T09:06:07;5.07;;;2.60;;
13461;SDS011;6803;45.264;5.468;2023-04-25T09:08:39;4.30;;;2.47;;
13461;SDS011;6803;45.264;5.468;2023-04-25T09:11:10;5.63;;;3.03;;
13461;SDS011;6803;45.264;5.468;2023-04-25T09:13:43;6.23;;;3.07;;
13461;SDS011;6803;45.264;5.468;2023-04-25T09:16:14;6.97;;;2.57;;
13461;SDS011;6803;45.264;5.468;2023-04-25T09:18:47;6.73;;;3.13;;
13461;SDS011;6803;45.264;5.468;2023-04-25T09:21:18;8.70;;;3.50;;
13461;SDS011;6803;45.264;5.468;2023-04-25T09:23:51;6.40;;;2.70;;
13461;SDS011;6803;45.264;5.468;2023-04-25T09:26:22;9.13;;;3.87;;
13461;SDS011;6803;45.264;5.468;2023-04-25T09:29:04;7.00;;;2.70;;
13461;SDS011;6803;45.264;5.468;2023-04-25T09:31:35;8.47;;;2.63;;
13461;SDS011;6803;45.264;5.468;2023-04-25T09:34:06;3.10;;;2.10;;
13461;SDS011;6803;45.264;5.468;2023-04-25T09:36:39;2.87;;;2.10;;
13461;SDS011;6803;45.264;5.468;2023-04-25T09:39:12;7.93;;;2.90;;
13461;SDS011;6803;45.264;5.468;2023-04-25T09:41:44;4.47;;;2.40;;
13461;SDS011;6803;45.264;5.468;2023-04-25T09:44:19;5.07;;;2.17;;
13461;SDS011;6803;45.264;5.468;2023-04-25T09:46:52;9.87;;;2.70;;
13461;SDS011;6803;45.264;5.468;2023-04-25T09:49:24;5.93;;;2.67;;
13461;SDS011;6803;45.264;5.468;2023-04-25T09:51:56;6.78;;;3.45;;
13461;SDS011;6803;45.264;5.468;2023-04-25T09:54:28;6.10;;;2.80;;
13461;SDS011;6803;45.264;5.468;2023-04-25T09:56:59;5.73;;;2.63;;
13461;SDS011;6803;45.264;5.468;2023-04-25T09:59:33;4.03;;;2.50;;
13461;SDS011;6803;45.264;5.468;2023-04-25T10:02:13;4.80;;;2.60;;
13461;SDS011;6803;45.264;5.468;2023-04-25T10:04:45;5.83;;;2.63;;
13461;SDS011;6803;45.264;5.468;2023-04-25T10:07:20;3.50;;;2.33;;
13461;SDS011;6803;45.264;5.468;2023-04-25T10:09:55;5.97;;;2.70;;
13461;SDS011;6803;45.264;5.468;2023-04-25T10:12:30;4.70;;;2.57;;
13461;SDS011;6803;45.264;5.468;2023-04-25T10:15:02;7.40;;;2.80;;
13461;SDS011;6803;45.264;5.468;2023-04-25T10:17:35;4.83;;;3.13;;
13461;SDS011;6803;45.264;5.468;2023-04-25T10:20:08;4.93;;;2.30;;
13461;SDS011;6803;45.264;5.468;2023-04-25T10:22:41;7.53;;;2.50;;
13461;SDS011;6803;45.264;5.468;2023-04-25T10:25:13;8.00;;;2.10;;
13461;SDS011;6803;45.264;5.468;2023-04-25T10:27:45;3.67;;;2.73;;
13461;SDS011;6803;45.264;5.468;2023-04-25T10:30:15;3.23;;;2.50;;
13461;SDS011;6803;45.264;5.468;2023-04-25T10:32:47;5.90;;;2.60;;
13461;SDS011;6803;45.264;5.468;2023-04-25T10:35:19;5.13;;;2.70;;
13461;SDS011;6803;45.264;5.468;2023-04-25T10:37:58;5.27;;;2.53;;
13461;SDS011;6803;45.264;5.468;2023-04-25T10:40:31;4.70;;;2.20;;
13461;SDS011;6803;45.264;5.468;2023-04-25T10:46:14;4.45;;;2.58;;
13461;SDS011;6803;45.264;5.468;2023-04-25T10:48:47;4.70;;;2.60;;
13461;SDS011;6803;45.264;5.468;2023-04-25T10:51:20;5.20;;;2.80;;
13461;SDS011;6803;45.264;5.468;2023-04-25T10:54:00;5.53;;;3.10;;
13461;SDS011;6803;45.264;5.468;2023-04-25T10:56:32;6.43;;;2.57;;
13461;SDS011;6803;45.264;5.468;2023-04-25T10:59:06;4.47;;;2.33;;
13461;SDS011;6803;45.264;5.468;2023-04-25T11:01:39;5.70;;;2.90;;
13461;SDS011;6803;45.264;5.468;2023-04-25T11:04:22;4.03;;;2.57;;
13461;SDS011;6803;45.264;5.468;2023-04-25T11:06:58;4.00;;;2.60;;
13461;SDS011;6803;45.264;5.468;2023-04-25T11:09:33;4.17;;;2.60;;
13461;SDS011;6803;45.264;5.468;2023-04-25T11:12:07;4.83;;;2.43;;
13461;SDS011;6803;45.264;5.468;2023-04-25T11:14:39;11.43;;;4.55;;
13461;SDS011;6803;45.264;5.468;2023-04-25T11:17:10;3.93;;;2.40;;
13461;SDS011;6803;45.264;5.468;2023-04-25T11:19:42;5.23;;;2.50;;
13461;SDS011;6803;45.264;5.468;2023-04-25T11:22:12;4.70;;;2.27;;
13461;SDS011;6803;45.264;5.468;2023-04-25T11:24:43;3.43;;;2.20;;
13461;SDS011;6803;45.264;5.468;2023-04-25T11:27:14;5.73;;;2.10;;
13461;SDS011;6803;45.264;5.468;2023-04-25T11:29:45;4.03;;;2.07;;
13461;SDS011;6803;45.264;5.468;2023-04-25T11:32:17;8.17;;;3.10;;
13461;SDS011;6803;45.264;5.468;2023-04-25T11:34:49;3.77;;;1.87;;
13461;SDS011;6803;45.264;5.468;2023-04-25T11:37:21;6.10;;;2.10;;
13461;SDS011;6803;45.264;5.468;2023-04-25T11:39:52;5.50;;;2.43;;
13461;SDS011;6803;45.264;5.468;2023-04-25T11:42:23;8.07;;;2.23;;
13461;SDS011;6803;45.264;5.468;2023-04-25T11:44:54;2.20;;;1.73;;
13461;SDS011;6803;45.264;5.468;2023-04-25T11:47:28;4.47;;;1.80;;
13461;SDS011;6803;45.264;5.468;2023-04-25T11:50:00;3.80;;;1.60;;
13461;SDS011;6803;45.264;5.468;2023-04-25T11:52:36;2.23;;;1.67;;
13461;SDS011;6803;45.264;5.468;2023-04-25T11:55:09;2.83;;;1.40;;
13461;SDS011;6803;45.264;5.468;2023-04-25T11:57:42;2.40;;;1.30;;
13461;SDS011;6803;45.264;5.468;2023-04-25T12:00:15;5.93;;;1.93;;
13461;SDS011;6803;45.264;5.468;2023-04-25T12:02:50;5.73;;;1.90;;
13461;SDS011;6803;45.264;5.468;2023-04-25T12:05:24;5.40;;;1.60;;
13461;SDS011;6803;45.264;5.468;2023-04-25T12:07:58;2.53;;;1.40;;
13461;SDS011;6803;45.264;5.468;2023-04-25T12:10:41;5.33;;;1.43;;
13461;SDS011;6803;45.264;5.468;2023-04-25T12:13:22;3.20;;;1.70;;
13461;SDS011;6803;45.264;5.468;2023-04-25T12:15:56;4.73;;;1.40;;
13461;SDS011;6803;45.264;5.468;2023-04-25T12:18:28;1.33;;;1.23;;
13461;SDS011;6803;45.264;5.468;2023-04-25T12:21:00;2.80;;;1.53;;
13461;SDS011;6803;45.264;5.468;2023-04-25T12:23:32;2.93;;;1.40;;
13461;SDS011;6803;45.264;5.468;2023-04-25T12:26:04;3.93;;;1.80;;
13461;SDS011;6803;45.264;5.468;2023-04-25T12:28:35;1.50;;;1.33;;
13461;SDS011;6803;45.264;5.468;2023-04-25T12:31:06;3.47;;;1.70;;
13461;SDS011;6803;45.264;5.468;2023-04-25T12:33:38;5.50;;;1.73;;
13461;SDS011;6803;45.264;5.468;2023-04-25T12:36:10;3.60;;;1.67;;
13461;SDS011;6803;45.264;5.468;2023-04-25T12:38:41;6.00;;;1.50;;
13461;SDS011;6803;45.264;5.468;2023-04-25T12:41:12;4.33;;;1.70;;
13461;SDS011;6803;45.264;5.468;2023-04-25T12:43:43;4.73;;;1.70;;
13461;SDS011;6803;45.264;5.468;2023-04-25T12:46:14;6.00;;;1.80;;
13461;SDS011;6803;45.264;5.468;2023-04-25T12:48:45;4.00;;;1.60;;
13461;SDS011;6803;45.264;5.468;2023-04-25T12:51:16;3.00;;;1.93;;
13461;SDS011;6803;45.264;5.468;2023-04-25T12:53:47;3.10;;;1.70;;
13461;SDS011;6803;45.264;5.468;2023-04-25T12:56:18;4.00;;;1.60;;
13461;SDS011;6803;45.264;5.468;2023-04-25T12:58:51;3.13;;;1.80;;
13461;SDS011;6803;45.264;5.468;2023-04-25T13:01:22;3.07;;;1.70;;
13461;SDS011;6803;45.264;5.468;2023-04-25T13:03:54;4.00;;;1.73;;
13461;SDS011;6803;45.264;5.468;2023-04-25T13:06:25;4.33;;;1.97;;
13461;SDS011;6803;45.264;5.468;2023-04-25T13:08:58;3.70;;;1.97;;
13461;SDS011;6803;45.264;5.468;2023-04-25T13:11:28;4.53;;;1.70;;
13461;SDS011;6803;45.264;5.468;2023-04-25T13:14:00;3.67;;;1.53;;
13461;SDS011;6803;45.264;5.468;2023-04-25T13:16:31;3.37;;;1.70;;
13461;SDS011;6803;45.264;5.468;2023-04-25T13:19:02;2.70;;;1.67;;
13461;SDS011;6803;45.264;5.468;2023-04-25T13:21:36;3.63;;;1.50;;
13461;SDS011;6803;45.264;5.468;2023-04-25T13:24:07;2.50;;;1.63;;
13461;SDS011;6803;45.264;5.468;2023-04-25T13:26:38;3.23;;;1.60;;
13461;SDS011;6803;45.264;5.468;2023-04-25T13:29:09;2.43;;;1.53;;
13461;SDS011;6803;45.264;5.468;2023-04-25T13:31:40;3.00;;;1.40;;
13461;SDS011;6803;45.264;5.468;2023-04-25T13:34:11;3.20;;;1.30;;
13461;SDS011;6803;45.264;5.468;2023-04-25T13:36:41;4.57;;;1.70;;
13461;SDS011;6803;45.264;5.468;2023-04-25T13:39:13;14.90;;;1.93;;
13461;SDS011;6803;45.264;5.468;2023-04-25T13:41:44;5.03;;;1.50;;
13461;SDS011;6803;45.264;5.468;2023-04-25T13:44:15;2.20;;;1.40;;
13461;SDS011;6803;45.264;5.468;2023-04-25T13:46:46;3.37;;;1.40;;
13461;SDS011;6803;45.264;5.468;2023-04-25T13:49:17;3.20;;;1.40;;
13461;SDS011;6803;45.264;5.468;2023-04-25T13:51:48;4.40;;;1.73;;
13461;SDS011;6803;45.264;5.468;2023-04-25T13:54:19;4.63;;;1.80;;
13461;SDS011;6803;45.264;5.468;2023-04-25T13:56:50;3.07;;;1.50;;
13461;SDS011;6803;45.264;5.468;2023-04-25T13:59:23;3.03;;;1.60;;
13461;SDS011;6803;45.264;5.468;2023-04-25T14:01:54;3.83;;;1.50;;
13461;SDS011;6803;45.264;5.468;2023-04-25T14:04:25;4.07;;;1.60;;
13461;SDS011;6803;45.264;5.468;2023-04-25T14:06:56;4.97;;;1.27;;
13461;SDS011;6803;45.264;5.468;2023-04-25T14:09:27;2.77;;;1.77;;
13461;SDS011;6803;45.264;5.468;2023-04-25T14:11:58;4.67;;;1.70;;
13461;SDS011;6803;45.264;5.468;2023-04-25T14:14:30;4.97;;;1.60;;
13461;SDS011;6803;45.264;5.468;2023-04-25T14:17:00;3.37;;;1.40;;
13461;SDS011;6803;45.264;5.468;2023-04-25T14:19:32;4.33;;;1.40;;
13461;SDS011;6803;45.264;5.468;2023-04-25T14:22:02;4.87;;;1.30;;
13461;SDS011;6803;45.264;5.468;2023-04-25T14:24:33;4.20;;;1.50;;
13461;SDS011;6803;45.264;5.468;2023-04-25T14:27:04;2.97;;;1.07;;
13461;SDS011;6803;45.264;5.468;2023-04-25T14:29:35;2.67;;;1.27;;
13461;SDS011;6803;45.264;5.468;2023-04-25T14:32:06;5.97;;;1.47;;
13461;SDS011;6803;45.264;5.468;2023-04-25T14:34:37;3.43;;;1.40;;
13461;SDS011;6803;45.264;5.468;2023-04-25T14:37:08;3.37;;;1.00;;
13461;SDS011;6803;45.264;5.468;2023-04-25T14:39:38;4.23;;;1.10;;
13461;SDS011;6803;45.264;5.468;2023-04-25T14:42:11;2.43;;;1.30;;
13461;SDS011;6803;45.264;5.468;2023-04-25T14:44:42;5.10;;;1.73;;
13461;SDS011;6803;45.264;5.468;2023-04-25T14:47:13;2.67;;;1.10;;
13461;SDS011;6803;45.264;5.468;2023-04-25T14:49:44;2.40;;;1.27;;
13461;SDS011;6803;45.264;5.468;2023-04-25T14:52:18;2.10;;;1.40;;
13461;SDS011;6803;45.264;5.468;2023-04-25T14:54:49;2.97;;;1.20;;
13461;SDS011;6803;45.264;5.468;2023-04-25T14:57:20;2.67;;;1.30;;
13461;SDS011;6803;45.264;5.468;2023-04-25T14:59:51;4.07;;;1.40;;
13461;SDS011;6803;45.264;5.468;2023-04-25T15:02:22;4.80;;;1.50;;
13461;SDS011;6803;45.264;5.468;2023-04-25T15:04:54;2.73;;;1.30;;
13461;SDS011;6803;45.264;5.468;2023-04-25T15:07:25;2.43;;;1.53;;
13461;SDS011;6803;45.264;5.468;2023-04-25T15:09:55;2.57;;;1.13;;
13461;SDS011;6803;45.264;5.468;2023-04-25T15:12:27;3.67;;;1.27;;
13461;SDS011;6803;45.264;5.468;2023-04-25T15:14:58;1.30;;;1.20;;
13461;SDS011;6803;45.264;5.468;2023-04-25T15:17:29;1.70;;;1.30;;
13461;SDS011;6803;45.264;5.468;2023-04-25T15:20:00;2.40;;;1.23;;
13461;SDS011;6803;45.264;5.468;2023-04-25T15:22:33;2.40;;;1.37;;
13461;SDS011;6803;45.264;5.468;2023-04-25T15:25:06;2.33;;;1.37;;
13461;SDS011;6803;45.264;5.468;2023-04-25T15:27:38;3.53;;;1.50;;
13461;SDS011;6803;45.264;5.468;2023-04-25T15:30:11;4.90;;;1.63;;
13461;SDS011;6803;45.264;5.468;2023-04-25T15:32:44;14.23;;;1.50;;
13461;SDS011;6803;45.264;5.468;2023-04-25T15:35:16;3.20;;;1.93;;